Time;durP1;ratioP1;P1;durP2;ratioP2;P2;SDS_P1;SDS_P2;PMS_P1;PMS_P2;Temp;Humidity;BMP_temperature;BMP_pressure;BME280_temperature;BME280_humidity;BME280_pressure;Samples;Min_cycle;Max_cycle;Signal;HPM_P1;HPM_P2
2023/02/20 00:00:26;;;;;;;119.45;114.55;;;11.30;94.90;;;;;;5112886;28;20035;-77
2023/02/20 00:02:52;;;;;;;122.35;117.35;;;11.30;94.90;;;;;;5113447;28;20397;-77
2023/02/20 00:05:19;;;;;;;122.85;117.85;;;11.30;94.80;;;;;;5113492;28;20019;-77
2023/02/20 00:07:44;;;;;;;125.45;120.35;;;11.30;94.80;;;;;;5113442;28;20106;-77
2023/02/20 00:10:10;;;;;;;131.70;126.47;;;11.30;94.80;;;;;;5113763;28;20111;-77
2023/02/20 00:12:36;;;;;;;127.07;121.97;;;11.30;94.80;;;;;;5095300;28;20127;-77
2023/02/20 00:15:02;;;;;;;128.05;122.93;;;11.30;94.80;;;;;;5094989;28;20110;-77
2023/02/20 00:17:28;;;;;;;;;;;11.40;94.90;;;;;;5096254;28;20440;-77
2023/02/20 00:19:54;;;;;;;125.15;120.15;;;11.40;94.90;;;;;;5094742;28;19947;-77
2023/02/20 00:22:24;;;;;;;127.88;122.78;;;11.50;94.80;;;;;;5113066;28;20383;-77
2023/02/20 00:24:50;;;;;;;125.45;120.45;;;11.60;94.90;;;;;;5094917;28;20104;-77
2023/02/20 00:27:16;;;;;;;126.93;121.82;;;11.60;94.80;;;;;;5113005;28;20027;-77
2023/02/20 00:29:44;;;;;;;125.07;120.07;;;11.70;94.80;;;;;;5112927;28;20035;-77
2023/02/20 00:32:10;;;;;;;124.38;119.38;;;11.70;94.80;;;;;;5112757;28;20039;-77
2023/02/20 00:34:36;;;;;;;;;;;11.70;94.80;;;;;;5113224;28;20161;-77
2023/02/20 00:37:02;;;;;;;121.72;116.90;;;11.70;94.80;;;;;;5112858;28;20019;-77
2023/02/20 00:39:28;;;;;;;125.78;120.78;;;11.80;94.80;;;;;;5094419;28;20031;-77
2023/02/20 00:41:55;;;;;;;126.00;121.00;;;11.70;94.80;;;;;;5112682;28;20035;-77
2023/02/20 00:44:21;;;;;;;120.63;115.82;;;11.80;94.80;;;;;;5094415;28;20031;-77
2023/02/20 00:46:47;;;;;;;119.40;114.60;;;11.80;94.80;;;;;;5112754;28;20031;-77
2023/02/20 00:49:13;;;;;;;121.28;116.45;;;11.80;94.80;;;;;;5094465;28;20043;-77
2023/02/20 00:51:39;;;;;;;118.78;114.07;;;11.80;94.80;;;;;;5077478;28;20299;-77
2023/02/20 00:54:05;;;;;;;123.57;118.68;;;11.80;94.80;;;;;;5094346;28;20173;-77
2023/02/20 00:56:30;;;;;;;125.45;120.45;;;11.80;94.80;;;;;;5094046;28;20128;-77
2023/02/20 00:58:56;;;;;;;122.07;117.25;;;11.80;94.80;;;;;;5077369;28;20404;-77
2023/02/20 01:01:23;;;;;;;123.25;118.35;;;11.80;94.80;;;;;;5094042;28;20027;-77
2023/02/20 01:03:49;;;;;;;123.05;118.15;;;11.90;94.80;;;;;;5094041;28;20036;-77
2023/02/20 01:06:15;;;;;;;119.15;114.45;;;11.90;94.80;;;;;;5112316;28;20100;-77
2023/02/20 01:08:41;;;;;;;121.25;116.45;;;11.90;94.80;;;;;;5094166;28;20039;-77
2023/02/20 01:11:07;;;;;;;124.28;119.38;;;11.90;94.80;;;;;;5111395;28;20027;-77
2023/02/20 01:13:33;;;;;;;117.28;112.63;;;11.90;94.80;;;;;;5093943;28;20500;-77
2023/02/20 01:15:59;;;;;;;117.93;113.22;;;11.90;94.80;;;;;;5112127;28;20472;-77
2023/02/20 01:18:24;;;;;;;115.70;111.10;;;11.90;94.80;;;;;;5112033;28;20074;-77
2023/02/20 01:20:50;;;;;;;118.35;113.65;;;11.90;94.80;;;;;;5112129;28;20024;-77
2023/02/20 01:23:16;;;;;;;114.65;110.05;;;11.90;94.80;;;;;;5076855;28;20036;-77
2023/02/20 01:25:42;;;;;;;117.90;113.20;;;11.90;94.80;;;;;;5111832;28;20043;-77
2023/02/20 01:28:07;;;;;;;117.97;113.32;;;11.90;94.80;;;;;;5111875;28;20063;-77
2023/02/20 01:30:33;;;;;;;122.43;117.63;;;11.80;94.80;;;;;;5112019;28;20754;-77
2023/02/20 01:32:59;;;;;;;117.40;112.78;;;11.80;95.00;;;;;;5111535;28;20055;-77
2023/02/20 01:35:29;;;;;;;112.55;108.07;;;11.90;94.90;;;;;;5093548;28;20127;-76
2023/02/20 01:37:54;;;;;;;116.20;111.60;;;11.90;94.90;;;;;;5077301;28;20394;-77
2023/02/20 01:40:21;;;;;;;117.53;112.93;;;11.90;94.90;;;;;;5111674;28;20030;-77
2023/02/20 01:42:47;;;;;;;112.82;108.43;;;11.90;94.90;;;;;;5076343;28;20039;-76
2023/02/20 01:45:18;;;;;;;112.15;107.75;;;11.90;94.80;;;;;;5093473;28;20404;-77
2023/02/20 01:47:44;;;;;;;114.57;110.07;;;11.90;94.80;;;;;;5111657;28;20026;-77
2023/02/20 01:50:11;;;;;;;112.53;108.13;;;11.90;94.80;;;;;;5111574;28;20042;-77
2023/02/20 01:52:40;;;;;;;116.78;112.18;;;11.90;94.80;;;;;;5094095;28;20027;-77
2023/02/20 01:55:11;;;;;;;115.57;111.07;;;11.90;94.80;;;;;;5111617;28;20042;-77
2023/02/20 01:57:40;;;;;;;115.95;111.45;;;11.90;94.80;;;;;;5111857;28;20016;-77
2023/02/20 02:00:14;;;;;;;114.80;110.30;;;11.90;94.80;;;;;;5111596;28;20103;-77
2023/02/20 02:02:44;;;;;;;112.97;108.57;;;11.80;94.80;;;;;;5111867;28;20024;-77
2023/02/20 02:05:11;;;;;;;110.53;106.18;;;11.90;94.90;;;;;;5093220;28;20390;-77
2023/02/20 02:07:38;;;;;;;112.97;108.55;;;11.90;94.90;;;;;;5093119;28;20059;-77
2023/02/20 02:10:11;;;;;;;112.72;108.32;;;11.90;94.90;;;;;;5111509;28;20098;-77
2023/02/20 02:12:37;;;;;;;114.97;110.47;;;11.90;94.90;;;;;;5111501;28;20016;-77
2023/02/20 02:15:12;;;;;;;115.40;110.90;;;11.90;94.90;;;;;;5093017;28;20024;-77
2023/02/20 02:17:48;;;;;;;112.75;108.35;;;11.90;94.90;;;;;;5111080;28;20026;-77
2023/02/20 02:20:45;;;;;;;112.70;108.30;;;11.80;94.80;;;;;;5111296;28;20459;-77
2023/02/20 02:23:22;;;;;;;113.63;109.20;;;11.80;94.80;;;;;;5095101;28;20027;-77
2023/02/20 02:26:06;;;;;;;114.90;110.40;;;11.80;94.80;;;;;;5115432;28;20516;-77
2023/02/20 02:29:04;;;;;;;111.40;107.07;;;11.80;94.80;;;;;;5115327;28;20022;-77
2023/02/20 02:31:48;;;;;;;109.07;104.82;;;11.70;94.80;;;;;;5096867;28;20077;-78
2023/02/20 02:34:48;;;;;;;112.13;107.72;;;11.70;94.90;;;;;;5115187;28;20031;-78
2023/02/20 02:37:40;;;;;;;110.70;106.40;;;11.70;94.90;;;;;;5096986;28;20012;-77
2023/02/20 02:40:20;;;;;;;111.75;107.35;;;11.80;94.90;;;;;;5096986;28;20380;-77
2023/02/20 02:42:58;;;;;;;109.75;105.45;;;11.80;94.90;;;;;;5114953;28;20027;-78
2023/02/20 02:45:44;;;;;;;108.95;104.65;;;11.80;94.90;;;;;;5096609;28;20030;-78
2023/02/20 02:48:27;;;;;;;109.50;105.20;;;11.80;94.90;;;;;;5096643;28;20027;-78
2023/02/20 02:50:57;;;;;;;110.80;106.45;;;11.80;94.90;;;;;;5096557;28;20027;-78
2023/02/20 02:53:23;;;;;;;109.97;105.68;;;11.90;94.90;;;;;;5096367;28;20387;-78
2023/02/20 02:55:49;;;;;;;107.82;103.60;;;11.90;94.90;;;;;;5114919;28;20028;-78
2023/02/20 02:58:17;;;;;;;111.47;107.07;;;11.90;94.90;;;;;;5096364;28;20476;-77
2023/02/20 03:01:11;;;;;;;113.72;109.22;;;11.90;94.90;;;;;;5096581;28;20031;-77
2023/02/20 03:03:39;;;;;;;109.97;105.68;;;12.00;94.90;;;;;;5092268;28;20077;-77
2023/02/20 03:06:12;;;;;;;110.90;106.50;;;12.00;94.90;;;;;;5096264;28;20027;-77
2023/02/20 03:08:59;;;;;;;110.80;106.47;;;12.00;94.90;;;;;;5114709;28;20321;-77
2023/02/20 03:11:27;;;;;;;112.95;108.50;;;12.00;94.90;;;;;;5096151;28;20068;-78
2023/02/20 03:17:14;;;;;;;111.75;107.35;;;12.00;94.90;;;;;;5114514;28;20058;-78
2023/02/20 03:19:47;;;;;;;114.25;109.75;;;12.00;94.90;;;;;;5096119;28;20448;-78
2023/02/20 03:22:24;;;;;;;112.10;107.70;;;12.00;94.90;;;;;;5095824;28;20174;-78
2023/02/20 03:24:55;;;;;;;109.82;105.53;;;12.00;94.90;;;;;;5114281;28;20035;-78
2023/02/20 03:27:49;;;;;;;114.00;109.50;;;12.00;94.90;;;;;;5114557;28;20547;-78
2023/02/20 03:30:35;;;;;;;112.60;108.20;;;12.00;94.90;;;;;;5076985;28;20070;-78
2023/02/20 03:44:33;;;;;;;114.28;109.82;;;12.00;94.90;;;;;;5114387;28;20085;-78
2023/02/20 03:47:01;;;;;;;112.75;108.35;;;12.00;94.90;;;;;;5113779;28;20406;-77
2023/02/20 03:49:33;;;;;;;115.38;110.88;;;12.00;94.90;;;;;;5095511;28;20034;-78
2023/02/20 03:51:59;;;;;;;112.38;107.97;;;12.00;94.90;;;;;;5095384;28;20057;-78
2023/02/20 03:54:28;;;;;;;113.97;109.47;;;12.00;94.90;;;;;;5095441;28;20500;-78
2023/02/20 03:57:21;;;;;;;113.22;108.82;;;12.00;94.90;;;;;;5095453;28;20433;-78
2023/02/20 03:59:54;;;;;;;117.82;113.22;;;12.00;94.90;;;;;;5095278;28;20396;-77
2023/02/20 04:02:34;;;;;;;115.63;111.13;;;12.00;94.90;;;;;;5095168;28;20028;-77
2023/02/20 04:05:04;;;;;;;112.55;108.10;;;12.00;94.90;;;;;;5095396;28;20387;-77
2023/02/20 04:07:40;;;;;;;116.78;112.18;;;12.00;94.90;;;;;;5113546;28;20103;-77
2023/02/20 04:10:10;;;;;;;122.93;118.13;;;12.00;94.90;;;;;;5113500;28;20028;-77
2023/02/20 04:12:40;;;;;;;122.53;117.72;;;12.00;94.90;;;;;;5113392;28;20019;-78
2023/02/20 04:15:08;;;;;;;120.75;115.95;;;11.90;94.80;;;;;;5113161;28;20042;-77
2023/02/20 04:17:50;;;;;;;127.50;122.40;;;11.90;94.80;;;;;;5078218;28;20059;-77
2023/02/20 04:20:17;;;;;;;121.38;116.57;;;11.90;94.90;;;;;;5094907;28;20016;-77
2023/02/20 04:22:47;;;;;;;121.47;116.68;;;11.90;94.90;;;;;;5112918;28;20077;-78
2023/02/20 04:25:29;;;;;;;123.47;118.55;;;11.90;94.90;;;;;;5113035;28;20055;-78
2023/02/20 04:27:56;;;;;;;126.47;121.47;;;11.90;94.90;;;;;;5113047;28;20020;-78
2023/02/20 04:30:22;;;;;;;;;;;11.90;94.90;;;;;;5078462;28;20365;-78
2023/02/20 04:32:47;;;;;;;123.57;118.68;;;11.90;94.90;;;;;;5091078;28;19978;-78
2023/02/20 04:35:18;;;;;;;126.35;121.35;;;11.90;94.90;;;;;;5091111;28;20056;-78
2023/02/20 04:37:44;;;;;;;124.97;119.97;;;11.90;94.80;;;;;;5092620;28;20547;-77
2023/02/20 04:40:13;;;;;;;125.03;120.07;;;11.90;94.90;;;;;;5074654;28;20094;-78
2023/02/20 04:42:39;;;;;;;124.10;119.20;;;11.90;94.90;;;;;;5092381;28;20030;-78
2023/02/20 04:45:05;;;;;;;124.15;119.20;;;11.90;94.90;;;;;;5074054;28;20028;-77
2023/02/20 04:47:31;;;;;;;125.20;120.30;;;11.90;94.90;;;;;;5091058;28;20077;-77
2023/02/20 04:49:57;;;;;;;127.45;122.43;;;11.90;94.90;;;;;;5073967;28;20024;-77
2023/02/20 04:52:23;;;;;;;125.38;120.45;;;11.90;94.90;;;;;;5090915;28;20047;-77
2023/02/20 04:54:49;;;;;;;;;;;11.90;94.90;;;;;;5092501;28;20456;-77
2023/02/20 04:57:15;;;;;;;119.30;114.60;;;11.90;94.90;;;;;;5090909;28;19939;-78
2023/02/20 04:59:41;;;;;;;125.15;120.15;;;11.90;94.80;;;;;;5090763;28;20052;-78
2023/02/20 05:02:07;;;;;;;120.07;115.32;;;11.90;94.90;;;;;;5092301;28;20545;-77
2023/02/20 05:04:33;;;;;;;119.50;114.75;;;11.90;94.90;;;;;;5091968;28;20055;-77
2023/02/20 05:06:59;;;;;;;119.55;114.78;;;11.80;94.80;;;;;;5090676;28;20040;-76
2023/02/20 05:09:25;;;;;;;121.18;116.38;;;11.80;94.90;;;;;;5073918;28;20370;-78
2023/02/20 05:11:51;;;;;;;117.95;113.25;;;11.90;94.90;;;;;;5090343;28;20504;-78
2023/02/20 05:14:17;;;;;;;125.25;120.25;;;11.90;94.90;;;;;;5092109;28;20043;-78
2023/02/20 05:16:44;;;;;;;120.07;115.28;;;11.90;94.90;;;;;;5091888;28;20415;-77
2023/02/20 05:19:10;;;;;;;;;;;11.80;94.90;;;;;;5090958;28;20035;-78
2023/02/20 05:24:20;;;;;;;121.28;116.47;;;11.80;94.90;;;;;;5090944;28;20515;-77
2023/02/20 05:26:45;;;;;;;;;;;11.80;94.90;;;;;;5092063;28;20042;-77
2023/02/20 05:29:12;;;;;;;117.95;113.25;;;11.90;94.90;;;;;;5091983;28;19908;-77
2023/02/20 05:31:41;;;;;;;116.97;112.28;;;11.90;94.90;;;;;;5094573;28;20104;-77
2023/02/20 05:34:07;;;;;;;118.45;113.75;;;11.90;94.90;;;;;;5093693;28;20411;-77
2023/02/20 05:36:33;;;;;;;115.70;111.10;;;11.90;94.90;;;;;;5111840;28;20034;-77
2023/02/20 05:38:59;;;;;;;120.72;115.93;;;11.90;94.90;;;;;;5111892;28;20123;-77
2023/02/20 05:41:25;;;;;;;119.25;114.55;;;11.90;94.90;;;;;;5111735;28;20103;-77
2023/02/20 05:43:53;;;;;;;115.75;111.15;;;12.00;94.90;;;;;;5111826;28;20039;-77
2023/02/20 05:46:19;;;;;;;118.38;113.68;;;12.00;94.90;;;;;;5076873;28;20440;-77
2023/02/20 05:48:49;;;;;;;119.93;115.18;;;11.90;94.90;;;;;;5111579;28;20032;-76
2023/02/20 05:51:22;;;;;;;116.65;112.03;;;11.90;94.90;;;;;;5093361;28;20368;-77
2023/02/20 05:53:48;;;;;;;122.20;117.32;;;11.90;94.90;;;;;;5111504;28;20027;-77
2023/02/20 05:56:13;;;;;;;120.93;116.13;;;11.90;94.90;;;;;;5111576;28;20046;-77
2023/02/20 05:58:42;;;;;;;121.07;116.28;;;11.90;94.90;;;;;;5092997;28;20081;-77
2023/02/20 06:01:08;;;;;;;114.72;110.13;;;12.00;94.90;;;;;;5111640;28;20031;-77
2023/02/20 06:03:34;;;;;;;119.50;114.70;;;12.00;95.00;;;;;;5111760;28;20024;-77
2023/02/20 06:06:00;;;;;;;119.90;115.07;;;12.00;94.90;;;;;;5093637;28;20399;-77
2023/02/20 06:08:25;;;;;;;118.95;114.15;;;12.00;94.90;;;;;;5111411;28;20038;-77
2023/02/20 06:10:51;;;;;;;123.88;118.88;;;12.00;94.90;;;;;;5111431;28;20055;-77
2023/02/20 06:13:17;;;;;;;124.00;118.95;;;11.90;94.80;;;;;;5093144;28;20020;-77
2023/02/20 06:15:43;;;;;;;122.85;117.85;;;11.90;94.80;;;;;;5076235;28;20055;-77
2023/02/20 06:18:08;;;;;;;128.30;123.10;;;11.90;94.90;;;;;;5111378;28;20032;-77
2023/02/20 06:20:34;;;;;;;128.98;123.72;;;11.90;94.90;;;;;;5092968;28;20036;-77
2023/02/20 06:23:00;;;;;;;129.10;123.82;;;11.90;94.90;;;;;;5111536;28;20445;-77
2023/02/20 06:25:25;;;;;;;128.82;123.55;;;11.80;94.80;;;;;;5111346;28;20354;-77
2023/02/20 06:27:51;;;;;;;129.45;124.18;;;11.80;94.90;;;;;;5111219;28;20062;-77
2023/02/20 06:30:17;;;;;;;131.43;126.07;;;11.90;94.90;;;;;;5059348;28;20028;-76
2023/02/20 06:32:42;;;;;;;128.18;122.95;;;11.80;94.90;;;;;;5110827;28;20066;-77
2023/02/20 06:35:08;;;;;;;127.05;121.85;;;11.90;94.90;;;;;;5110838;28;20042;-77
2023/02/20 06:37:34;;;;;;;128.98;123.70;;;11.80;95.10;;;;;;5094870;28;20108;-77
2023/02/20 06:40:00;;;;;;;126.90;121.70;;;11.90;94.90;;;;;;5076496;28;20027;-77
2023/02/20 06:42:25;;;;;;;125.40;120.25;;;11.90;94.90;;;;;;5092828;28;20054;-77
2023/02/20 06:44:51;;;;;;;127.47;122.25;;;11.90;94.90;;;;;;5092981;28;20047;-77
2023/02/20 06:47:17;;;;;;;127.97;122.75;;;11.90;94.90;;;;;;5075833;28;20055;-77
2023/02/20 06:49:42;;;;;;;131.32;125.93;;;11.80;94.90;;;;;;5092571;28;20081;-77
2023/02/20 06:52:09;;;;;;;134.25;128.75;;;11.80;94.90;;;;;;5092773;28;20089;-77
2023/02/20 06:54:35;;;;;;;;;;;11.80;94.90;;;;;;5093271;28;20031;-77
2023/02/20 06:57:01;;;;;;;136.85;131.25;;;11.80;94.90;;;;;;5110849;28;19908;-76
2023/02/20 06:59:27;;;;;;;;;;;11.90;94.90;;;;;;5111457;28;20051;-77
2023/02/20 07:01:53;;;;;;;131.18;125.78;;;11.80;94.90;;;;;;5092567;28;20327;-76
2023/02/20 07:04:25;;;;;;;131.48;126.07;;;11.90;94.90;;;;;;5092480;28;20069;-76
2023/02/20 07:06:51;;;;;;;132.90;127.40;;;11.90;94.90;;;;;;5110751;28;20031;-77
2023/02/20 07:09:19;;;;;;;134.70;129.15;;;11.80;94.90;;;;;;5093272;28;20035;-76
2023/02/20 07:11:45;;;;;;;132.98;127.47;;;11.80;94.90;;;;;;5114264;28;20020;-76
2023/02/20 07:14:10;;;;;;;139.82;134.05;;;11.80;94.90;;;;;;5114347;28;20034;-76
2023/02/20 07:16:36;;;;;;;139.15;133.40;;;11.80;94.90;;;;;;5114385;28;20375;-77
2023/02/20 07:19:02;;;;;;;137.95;132.23;;;11.80;94.90;;;;;;5096261;28;20036;-76
2023/02/20 07:21:27;;;;;;;143.23;137.32;;;11.70;94.90;;;;;;5062328;28;20035;-76
2023/02/20 07:23:53;;;;;;;138.77;133.02;;;11.70;94.90;;;;;;5078869;28;20184;-76
2023/02/20 07:26:20;;;;;;;140.57;134.77;;;11.70;94.90;;;;;;5078848;28;20040;-77
2023/02/20 07:28:46;;;;;;;146.32;140.32;;;11.80;94.90;;;;;;5095383;28;20024;-77
2023/02/20 07:31:12;;;;;;;137.20;131.50;;;11.70;94.90;;;;;;5114033;28;20472;-76
2023/02/20 07:33:38;;;;;;;139.18;133.40;;;11.70;94.90;;;;;;5113576;28;20411;-76
2023/02/20 07:36:04;;;;;;;142.85;136.95;;;11.70;94.90;;;;;;5113814;28;20027;-77
2023/02/20 07:38:30;;;;;;;140.18;134.38;;;11.70;94.90;;;;;;5113545;28;20027;-76
2023/02/20 07:40:55;;;;;;;140.00;134.18;;;11.70;94.90;;;;;;5095427;28;20419;-76
2023/02/20 07:43:21;;;;;;;139.68;133.88;;;11.70;94.90;;;;;;5095288;28;20582;-76
2023/02/20 07:45:47;;;;;;;139.98;134.18;;;11.70;94.90;;;;;;5113807;28;20084;-76
2023/02/20 07:48:12;;;;;;;142.13;136.32;;;11.70;94.90;;;;;;5113715;28;20036;-75
2023/02/20 07:50:38;;;;;;;137.80;132.10;;;11.70;94.90;;;;;;5095450;28;20445;-76
2023/02/20 07:53:04;;;;;;;139.65;133.85;;;11.80;95.00;;;;;;5113463;28;20040;-76
2023/02/20 07:55:30;;;;;;;137.35;131.68;;;11.70;94.90;;;;;;5113972;28;20511;-76
2023/02/20 07:57:57;;;;;;;144.23;138.30;;;11.80;94.90;;;;;;5113438;28;20495;-76
2023/02/20 08:00:25;;;;;;;150.48;144.27;;;11.80;94.90;;;;;;5094789;28;20024;-76
2023/02/20 08:02:51;;;;;;;147.15;141.10;;;11.80;94.90;;;;;;5113204;28;20475;-76
2023/02/20 08:05:16;;;;;;;145.05;139.05;;;11.80;94.90;;;;;;5094853;28;20027;-77
2023/02/20 08:07:46;;;;;;;145.38;139.38;;;11.90;95.00;;;;;;5095172;28;20062;-77
2023/02/20 08:10:14;;;;;;;141.90;136.00;;;11.90;95.00;;;;;;5113221;28;20028;-76
2023/02/20 08:12:39;;;;;;;142.20;136.30;;;11.90;95.00;;;;;;5112669;28;20073;-76
2023/02/20 08:15:05;;;;;;;141.00;135.10;;;12.00;95.00;;;;;;5113337;28;20500;-76
2023/02/20 08:17:31;;;;;;;138.15;132.40;;;12.00;95.30;;;;;;5113077;28;20102;-75
2023/02/20 08:19:57;;;;;;;134.20;128.57;;;12.00;95.00;;;;;;5112673;28;20161;-76
2023/02/20 08:22:22;;;;;;;132.65;127.05;;;12.00;95.00;;;;;;5094752;28;20035;-77
2023/02/20 08:24:48;;;;;;;131.70;126.15;;;12.00;95.00;;;;;;5094764;28;20110;-77
2023/02/20 08:27:14;;;;;;;131.50;125.97;;;12.10;95.00;;;;;;5077479;28;20120;-77
2023/02/20 08:29:40;;;;;;;132.82;127.22;;;12.10;95.00;;;;;;5094213;28;20383;-76
2023/02/20 08:32:05;;;;;;;130.55;125.05;;;12.20;95.10;;;;;;5112509;28;20051;-77
2023/02/20 08:34:31;;;;;;;129.50;124.07;;;12.20;95.10;;;;;;5094293;28;20058;-72
2023/02/20 08:36:57;;;;;;;125.28;119.97;;;12.30;95.10;;;;;;5094106;28;20487;-76
2023/02/20 08:39:22;;;;;;;124.35;119.15;;;12.40;95.10;;;;;;5094002;28;20039;-76
2023/02/20 08:41:48;;;;;;;124.15;118.95;;;12.50;95.00;;;;;;5076879;28;20031;-78
2023/02/20 08:44:14;;;;;;;120.43;115.35;;;12.50;95.00;;;;;;5077177;28;20042;-78
2023/02/20 08:46:50;;;;;;;120.30;115.20;;;12.60;95.10;;;;;;5093781;28;20151;-77
2023/02/20 08:49:17;;;;;;;117.70;112.75;;;12.60;95.00;;;;;;5094039;28;20114;-77
2023/02/20 08:51:46;;;;;;;117.20;112.20;;;12.60;95.10;;;;;;5112240;28;20073;-78
2023/02/20 08:54:13;;;;;;;118.00;113.00;;;12.70;95.10;;;;;;5112284;28;20020;-77
2023/02/20 08:56:40;;;;;;;116.53;111.63;;;12.80;95.10;;;;;;5111902;28;20031;-78
2023/02/20 08:59:06;;;;;;;113.78;108.97;;;12.90;95.10;;;;;;5093815;28;20036;-77
2023/02/20 09:01:32;;;;;;;111.03;106.35;;;12.90;95.00;;;;;;5093154;28;20030;-77
2023/02/20 09:03:57;;;;;;;111.97;107.28;;;12.90;95.10;;;;;;5093637;28;20031;-77
2023/02/20 09:06:24;;;;;;;110.95;106.28;;;13.00;95.10;;;;;;5093824;28;20077;-78
2023/02/20 09:08:51;;;;;;;109.80;105.22;;;13.00;95.10;;;;;;5076777;28;20051;-77
2023/02/20 09:11:17;;;;;;;108.72;104.20;;;13.00;95.00;;;;;;5111687;28;20036;-77
2023/02/20 09:13:47;;;;;;;111.22;106.60;;;13.00;95.00;;;;;;5111729;28;20028;-77
2023/02/20 09:16:15;;;;;;;111.75;107.10;;;13.00;95.10;;;;;;5111692;28;20383;-76
2023/02/20 09:18:42;;;;;;;108.63;104.03;;;13.00;95.10;;;;;;5111344;28;20026;-77
2023/02/20 09:21:09;;;;;;;108.25;103.65;;;13.10;95.10;;;;;;5111384;28;20020;-77
2023/02/20 09:23:35;;;;;;;108.60;104.18;;;13.10;95.10;;;;;;5093295;28;20115;-76
2023/02/20 09:26:01;;;;;;;113.13;108.43;;;13.10;95.10;;;;;;5111394;28;20120;-77
2023/02/20 09:28:27;;;;;;;105.85;101.35;;;13.10;95.10;;;;;;5111335;28;20066;-77
2023/02/20 09:30:54;;;;;;;105.10;100.70;;;13.10;95.10;;;;;;5093275;28;20023;-77
2023/02/20 09:33:20;;;;;;;103.00;98.70;;;13.20;95.20;;;;;;5075919;28;20043;-77
2023/02/20 09:35:48;;;;;;;102.07;97.88;;;13.20;95.10;;;;;;5113335;28;20035;-76
2023/02/20 09:38:14;;;;;;;97.72;93.63;;;13.30;95.20;;;;;;5113384;28;20091;-76
2023/02/20 09:40:49;;;;;;;99.20;95.10;;;13.40;95.20;;;;;;5113029;28;20023;-76
2023/02/20 09:43:42;;;;;;;103.40;99.20;;;13.40;95.20;;;;;;5095404;28;20027;-77
2023/02/20 09:46:21;;;;;;;96.60;92.60;;;13.50;95.10;;;;;;5113511;28;20055;-79
2023/02/20 09:49:10;;;;;;;94.68;90.78;;;13.50;95.10;;;;;;5112947;28;20019;-75
2023/02/20 09:51:44;;;;;;;90.20;86.50;;;13.60;95.10;;;;;;5113441;28;20033;-78
2023/02/20 09:54:33;;;;;;;92.57;88.78;;;13.60;95.10;;;;;;5094291;28;20479;-77
2023/02/20 09:57:03;;;;;;;89.25;85.57;;;13.70;95.10;;;;;;5094845;28;20486;-76
2023/02/20 09:59:37;;;;;;;91.05;87.35;;;13.70;95.10;;;;;;5113813;28;20028;-78
2023/02/20 10:02:14;;;;;;;85.32;81.82;;;13.70;95.10;;;;;;5112964;28;20030;-77
2023/02/20 10:04:47;;;;;;;87.07;83.55;;;13.70;95.10;;;;;;5113354;28;20024;-77
2023/02/20 10:07:35;;;;;;;90.75;87.13;;;13.70;95.10;;;;;;5113124;28;20400;-77
2023/02/20 10:10:37;;;;;;;88.60;85.10;;;13.70;95.10;;;;;;5095327;28;20031;-77
2023/02/20 10:13:31;;;;;;;87.70;84.20;;;13.80;95.10;;;;;;5095981;28;20028;-78
2023/02/20 10:16:03;;;;;;;84.03;80.65;;;13.80;95.10;;;;;;5094706;28;20023;-78
2023/02/20 10:18:47;;;;;;;84.28;80.88;;;13.70;95.10;;;;;;5111673;28;20489;-78
2023/02/20 10:21:34;;;;;;;83.53;80.22;;;13.80;95.20;;;;;;5091760;28;20015;-78
2023/02/20 10:24:20;;;;;;;85.63;82.22;;;13.80;95.10;;;;;;5107516;28;20348;-77
2023/02/20 10:26:52;;;;;;;80.47;77.28;;;13.80;95.10;;;;;;5105869;28;20019;-77
2023/02/20 10:29:25;;;;;;;82.47;79.18;;;13.90;95.10;;;;;;5089234;28;20043;-76
2023/02/20 10:31:53;;;;;;;82.65;79.35;;;13.90;95.20;;;;;;5086545;28;20028;-76
2023/02/20 10:34:27;;;;;;;85.10;81.70;;;13.90;95.20;;;;;;5107080;28;20447;-76
2023/02/20 10:37:00;;;;;;;83.85;80.55;;;14.00;95.20;;;;;;5092044;28;20027;-76
2023/02/20 10:39:27;;;;;;;85.18;81.78;;;14.00;95.20;;;;;;5094037;28;20081;-75
2023/02/20 10:42:12;;;;;;;79.97;76.78;;;14.10;95.20;;;;;;5112558;28;20111;-77
2023/02/20 10:44:41;;;;;;;81.35;78.15;;;14.10;95.10;;;;;;5095497;28;20023;-76
2023/02/20 10:47:13;;;;;;;80.05;76.95;;;14.10;95.10;;;;;;5097868;28;20391;-75
2023/02/20 10:50:13;;;;;;;74.40;71.50;;;14.10;95.20;;;;;;5114315;28;20062;-75
2023/02/20 10:52:53;;;;;;;76.60;73.70;;;14.20;95.20;;;;;;5116427;28;20032;-76
2023/02/20 10:55:30;;;;;;;70.25;67.55;;;14.20;95.20;;;;;;5098300;28;20632;-76
2023/02/20 10:58:29;;;;;;;75.95;73.05;;;14.20;95.20;;;;;;5110817;28;20023;-75
2023/02/20 11:01:00;;;;;;;73.22;70.32;;;14.20;95.20;;;;;;5084213;28;20031;-77
2023/02/20 11:04:05;;;;;;;73.20;70.30;;;14.40;95.30;;;;;;5097471;28;20027;-74
2023/02/20 11:06:43;;;;;;;72.75;69.85;;;14.40;95.20;;;;;;5084083;28;20043;-75
2023/02/20 11:09:09;;;;;;;76.90;74.00;;;14.60;95.20;;;;;;5097539;28;20066;-76
2023/02/20 11:11:40;;;;;;;72.68;69.88;;;14.60;95.20;;;;;;5097405;28;20024;-75
2023/02/20 11:14:25;;;;;;;73.57;70.68;;;14.70;95.20;;;;;;5115350;28;20110;-75
2023/02/20 11:17:14;;;;;;;75.50;72.60;;;14.70;95.10;;;;;;5097141;28;20047;-74
2023/02/20 11:19:44;;;;;;;76.43;73.43;;;14.60;95.10;;;;;;5115578;28;20016;-75
2023/02/20 11:22:10;;;;;;;79.30;76.20;;;14.50;95.00;;;;;;5115312;28;20411;-75
2023/02/20 11:24:40;;;;;;;75.20;72.30;;;14.50;95.10;;;;;;5097853;28;20371;-73
2023/02/20 11:27:21;;;;;;;76.45;73.55;;;14.50;95.10;;;;;;5098950;28;20488;-74
2023/02/20 11:30:03;;;;;;;73.95;71.07;;;14.50;95.20;;;;;;5097269;28;20031;-75
2023/02/20 11:32:37;;;;;;;78.03;75.03;;;14.50;95.10;;;;;;5114955;28;20097;-76
2023/02/20 11:35:18;;;;;;;74.55;71.65;;;14.50;95.10;;;;;;5115441;28;20032;-74
2023/02/20 11:37:45;;;;;;;73.35;70.55;;;14.50;95.10;;;;;;5115279;28;20088;-75
2023/02/20 11:40:27;;;;;;;76.95;74.05;;;14.50;95.10;;;;;;5115275;28;20133;-74
2023/02/20 11:42:53;;;;;;;75.43;72.53;;;14.50;95.10;;;;;;5114627;28;20421;-74
2023/02/20 11:45:23;;;;;;;75.70;72.80;;;14.50;95.10;;;;;;5114879;28;20028;-75
2023/02/20 11:48:09;;;;;;;75.15;72.25;;;14.50;95.20;;;;;;5114872;28;20024;-75
2023/02/20 11:50:43;;;;;;;73.85;71.03;;;14.50;95.20;;;;;;5097344;28;20031;-75
2023/02/20 11:53:17;;;;;;;69.00;66.40;;;14.60;95.30;;;;;;5114605;28;20028;-75
2023/02/20 11:55:42;;;;;;;65.32;62.83;;;14.80;95.40;;;;;;5113740;28;20392;-76
2023/02/20 11:58:23;;;;;;;61.90;59.60;;;15.10;95.50;;;;;;5114729;28;20038;-74
2023/02/20 12:00:54;;;;;;;62.22;59.83;;;15.30;95.30;;;;;;5114758;28;20046;-72
2023/02/20 12:03:24;;;;;;;66.63;64.13;;;15.40;95.10;;;;;;5096421;28;20023;-74
2023/02/20 12:05:51;;;;;;;64.68;62.17;;;15.30;95.00;;;;;;5113411;28;20031;-73
2023/02/20 12:08:39;;;;;;;64.30;61.90;;;15.30;95.10;;;;;;5093316;28;20403;-75
2023/02/20 12:11:18;;;;;;;66.57;64.07;;;15.20;95.00;;;;;;5092151;28;20104;-75
2023/02/20 12:13:46;;;;;;;64.47;61.97;;;15.20;95.10;;;;;;5094764;28;20136;-75
2023/02/20 12:16:39;;;;;;;64.05;61.65;;;15.20;95.10;;;;;;5106300;28;20023;-75
2023/02/20 12:19:17;;;;;;;67.70;65.15;;;15.20;95.10;;;;;;5094369;28;20020;-75
2023/02/20 12:22:08;;;;;;;64.18;61.78;;;15.20;95.20;;;;;;5075908;28;20169;-74
2023/02/20 12:24:34;;;;;;;66.20;63.70;;;15.20;95.20;;;;;;5093138;28;20035;-74
2023/02/20 12:27:03;;;;;;;67.68;65.18;;;15.10;95.10;;;;;;5074126;28;20028;-74
2023/02/20 12:29:51;;;;;;;66.80;64.30;;;15.10;95.10;;;;;;5073779;28;20081;-75
2023/02/20 12:32:55;;;;;;;66.72;64.22;;;15.10;95.20;;;;;;5074647;28;20096;-75
2023/02/20 12:35:32;;;;;;;67.30;64.78;;;15.10;95.10;;;;;;5093286;28;20028;-74
2023/02/20 12:38:43;;;;;;;65.50;63.10;;;15.10;95.10;;;;;;5074179;28;20025;-74
2023/02/20 12:41:37;;;;;;;67.47;64.90;;;15.00;95.10;;;;;;5068703;28;20061;-75
2023/02/20 12:44:25;;;;;;;71.65;69.05;;;14.90;95.10;;;;;;5093631;28;20089;-75
2023/02/20 12:47:13;;;;;;;65.20;62.70;;;14.90;95.10;;;;;;5093349;28;20179;-75
2023/02/20 12:50:25;;;;;;;66.97;64.47;;;14.80;95.10;;;;;;5075326;28;20028;-76
2023/02/20 12:53:08;;;;;;;64.78;62.38;;;14.80;95.10;;;;;;5094237;28;20054;-75